Orbital elements of SL-6 R/B(2)
| Launched | 21 October 1985 |
| Flight ended | – |
| Launch site | Plesetsk Missile and Space Complex, Russia |
| Owner | Commonwealth of Independent States (former USSR) |
| NORAD ID | 16186 |
| Date fetched |
Epoch osculation |
Inc. [°] |
Ecc. | RA asc node [hr] |
Arg Peri. [°] |
Mean anom [°] |
Mean motion [rev/day] |
Abs. mag |
| Date fetched |
Epoch osculation |
Inc. [°] |
Ecc. | RA asc node [hr] |
Arg Peri. [°] |
Mean anom [°] |
Mean motion [rev/day] |
Abs. mag |
| 2026 May 01 17:56 | 2026 Apr 30 05:59:49 | 71.3152 | 0.56045 | 0.6602 | 344.1464 | 229.8032 | 2.03407 | 5.743 |
| 2026 Apr 30 17:56 | 2026 Apr 30 05:59:49 | 71.3152 | 0.56045 | 0.6602 | 344.1464 | 229.8032 | 2.03407 | 5.743 |
| 2026 Apr 29 17:57 | 2026 Apr 23 08:15:45 | 71.3050 | 0.56060 | 0.6829 | 344.3727 | 229.8032 | 2.03407 | 5.743 |
| 2026 Apr 28 17:56 | 2026 Apr 23 08:15:45 | 71.3050 | 0.56060 | 0.6829 | 344.3727 | 229.8032 | 2.03407 | 5.743 |
| 2026 Apr 27 17:58 | 2026 Apr 23 08:15:45 | 71.3050 | 0.56060 | 0.6829 | 344.3727 | 229.8032 | 2.03407 | 5.743 |
| 2026 Apr 26 17:58 | 2026 Apr 23 08:15:45 | 71.3050 | 0.56060 | 0.6829 | 344.3727 | 229.8032 | 2.03407 | 5.743 |
| 2026 Apr 25 17:58 | 2026 Apr 23 08:15:45 | 71.3050 | 0.56060 | 0.6829 | 344.3727 | 229.8032 | 2.03407 | 5.743 |
| 2026 Apr 24 17:59 | 2026 Apr 23 08:15:45 | 71.3050 | 0.56060 | 0.6829 | 344.3727 | 229.8032 | 2.03407 | 5.743 |
| 2026 Apr 23 17:57 | 2026 Apr 18 22:29:50 | 71.2995 | 0.56070 | 0.6974 | 344.5180 | 229.8032 | 2.03407 | 5.743 |
| 2026 Apr 22 17:57 | 2026 Apr 18 22:29:50 | 71.2995 | 0.56070 | 0.6974 | 344.5180 | 229.8032 | 2.03407 | 5.743 |
| 2026 Apr 21 17:57 | 2026 Apr 18 22:29:50 | 71.2995 | 0.56070 | 0.6974 | 344.5180 | 229.8032 | 2.03407 | 5.743 |
| 2026 Apr 20 17:57 | 2026 Apr 18 22:29:50 | 71.2995 | 0.56070 | 0.6974 | 344.5180 | 229.8032 | 2.03407 | 5.743 |
| 2026 Apr 19 17:58 | 2026 Apr 18 22:29:50 | 71.2995 | 0.56070 | 0.6974 | 344.5180 | 229.8032 | 2.03407 | 5.743 |
| 2026 Apr 18 17:56 | 2026 Apr 12 13:11:00 | 71.2917 | 0.56084 | 0.7184 | 344.7287 | 229.8032 | 2.03407 | 5.743 |
| 2026 Apr 16 17:57 | 2026 Apr 12 13:11:00 | 71.2917 | 0.56084 | 0.7184 | 344.7287 | 229.8032 | 2.03407 | 5.743 |
| 2026 Apr 14 17:57 | 2026 Apr 12 13:11:00 | 71.2917 | 0.56084 | 0.7184 | 344.7287 | 229.8032 | 2.03407 | 5.743 |
| 2026 Apr 13 17:57 | 2026 Apr 12 13:11:00 | 71.2917 | 0.56084 | 0.7184 | 344.7287 | 229.8032 | 2.03407 | 5.743 |
| 2026 Apr 12 17:57 | 2026 Apr 07 14:59:46 | 71.2863 | 0.56096 | 0.7346 | 344.8959 | 229.8032 | 2.03407 | 5.743 |
| 2026 Apr 11 17:57 | 2026 Apr 07 14:59:46 | 71.2863 | 0.56096 | 0.7346 | 344.8959 | 229.8032 | 2.03407 | 5.743 |
| 2026 Apr 10 17:58 | 2026 Apr 07 14:59:46 | 71.2863 | 0.56096 | 0.7346 | 344.8959 | 229.8032 | 2.03407 | 5.743 |
| 2026 Apr 09 18:01 | 2026 Apr 07 14:59:46 | 71.2863 | 0.56096 | 0.7346 | 344.8959 | 229.8032 | 2.03407 | 5.743 |
| 2026 Apr 08 17:57 | 2026 Apr 07 14:59:46 | 71.2863 | 0.56096 | 0.7346 | 344.8959 | 229.8032 | 2.03407 | 5.743 |
| 2026 Apr 07 17:57 | 2026 Mar 26 08:38:52 | 71.2689 | 0.56127 | 0.7749 | 345.3038 | 229.8032 | 2.03407 | 5.743 |
| 2026 Apr 06 17:57 | 2026 Mar 26 08:38:52 | 71.2689 | 0.56127 | 0.7749 | 345.3038 | 229.8032 | 2.03407 | 5.743 |
| 2026 Apr 05 17:56 | 2026 Mar 26 08:38:52 | 71.2689 | 0.56127 | 0.7749 | 345.3038 | 229.8032 | 2.03407 | 5.743 |
| 2026 Apr 04 17:57 | 2026 Mar 26 08:38:52 | 71.2689 | 0.56127 | 0.7749 | 345.3038 | 229.8032 | 2.03407 | 5.743 |